sensor_id;sensor_type;location;lat;lon;timestamp;pressure;altitude;pressure_sealevel;temperature;humidity
73551;BME280;61816;53.582;10.096;2022-09-09T00:02:25;100583.78;;;14.98;100.00
73551;BME280;61816;53.582;10.096;2022-09-09T00:05:02;100581.97;;;15.26;100.00
73551;BME280;61816;53.582;10.096;2022-09-09T00:07:47;100583.97;;;15.17;100.00
73551;BME280;61816;53.582;10.096;2022-09-09T00:10:26;100580.13;;;15.12;100.00
73551;BME280;61816;53.582;10.096;2022-09-09T00:13:16;100578.22;;;15.27;100.00
73551;BME280;61816;53.582;10.096;2022-09-09T00:18:50;100576.91;;;15.23;100.00
73551;BME280;61816;53.582;10.096;2022-09-09T00:21:18;100590.69;;;15.15;100.00
73551;BME280;61816;53.582;10.096;2022-09-09T00:23:48;100576.47;;;15.19;100.00
73551;BME280;61816;53.582;10.096;2022-09-09T00:26:48;100591.06;;;15.12;100.00
73551;BME280;61816;53.582;10.096;2022-09-09T00:29:28;100583.44;;;14.86;100.00
73551;BME280;61816;53.582;10.096;2022-09-09T00:32:05;100586.50;;;14.76;100.00
73551;BME280;61816;53.582;10.096;2022-09-09T00:34:39;100590.78;;;14.85;100.00
73551;BME280;61816;53.582;10.096;2022-09-09T00:37:08;100581.97;;;14.83;100.00
73551;BME280;61816;53.582;10.096;2022-09-09T00:39:47;100589.50;;;14.81;100.00
73551;BME280;61816;53.582;10.096;2022-09-09T00:42:15;100579.38;;;14.75;100.00
73551;BME280;61816;53.582;10.096;2022-09-09T00:47:58;100578.31;;;14.76;100.00
73551;BME280;61816;53.582;10.096;2022-09-09T00:50:47;100573.06;;;14.75;100.00
73551;BME280;61816;53.582;10.096;2022-09-09T00:58:35;100578.66;;;14.52;100.00
73551;BME280;61816;53.582;10.096;2022-09-09T01:01:05;100571.91;;;14.48;100.00
73551;BME280;61816;53.582;10.096;2022-09-09T01:06:11;100586.75;;;14.30;100.00
73551;BME280;61816;53.582;10.096;2022-09-09T01:08:50;100575.09;;;14.36;100.00
73551;BME280;61816;53.582;10.096;2022-09-09T01:11:22;100581.47;;;14.44;100.00
73551;BME280;61816;53.582;10.096;2022-09-09T01:13:52;100578.53;;;14.45;100.00
73551;BME280;61816;53.582;10.096;2022-09-09T01:16:20;100572.66;;;14.42;100.00
73551;BME280;61816;53.582;10.096;2022-09-09T01:18:48;100582.72;;;14.41;100.00
73551;BME280;61816;53.582;10.096;2022-09-09T01:21:27;100564.31;;;14.28;100.00
73551;BME280;61816;53.582;10.096;2022-09-09T01:26:43;100576.38;;;14.40;100.00
73551;BME280;61816;53.582;10.096;2022-09-09T01:29:13;100576.78;;;14.37;100.00
73551;BME280;61816;53.582;10.096;2022-09-09T01:31:56;100577.81;;;14.36;100.00
73551;BME280;61816;53.582;10.096;2022-09-09T01:34:25;100578.47;;;14.38;100.00
73551;BME280;61816;53.582;10.096;2022-09-09T01:37:04;100579.97;;;14.26;100.00
73551;BME280;61816;53.582;10.096;2022-09-09T01:39:32;100576.97;;;14.21;100.00
73551;BME280;61816;53.582;10.096;2022-09-09T01:41:58;100575.56;;;14.25;100.00
73551;BME280;61816;53.582;10.096;2022-09-09T01:44:25;100579.97;;;14.26;100.00
73551;BME280;61816;53.582;10.096;2022-09-09T01:46:51;100567.78;;;14.22;100.00
73551;BME280;61816;53.582;10.096;2022-09-09T01:49:17;100573.78;;;14.32;100.00
73551;BME280;61816;53.582;10.096;2022-09-09T01:51:43;100572.94;;;14.32;100.00
73551;BME280;61816;53.582;10.096;2022-09-09T01:54:11;100567.13;;;14.50;100.00
73551;BME280;61816;53.582;10.096;2022-09-09T01:56:57;100569.19;;;14.48;100.00
73551;BME280;61816;53.582;10.096;2022-09-09T02:02:16;100561.59;;;14.28;100.00
73551;BME280;61816;53.582;10.096;2022-09-09T02:08:07;100558.94;;;14.20;100.00
73551;BME280;61816;53.582;10.096;2022-09-09T02:10:50;100564.22;;;14.07;100.00
73551;BME280;61816;53.582;10.096;2022-09-09T02:13:20;100557.66;;;14.16;100.00
73551;BME280;61816;53.582;10.096;2022-09-09T02:15:56;100573.59;;;14.19;100.00
73551;BME280;61816;53.582;10.096;2022-09-09T02:21:02;100577.84;;;14.07;100.00
73551;BME280;61816;53.582;10.096;2022-09-09T02:23:28;100569.88;;;13.91;100.00
73551;BME280;61816;53.582;10.096;2022-09-09T02:25:56;100573.44;;;14.06;100.00
73551;BME280;61816;53.582;10.096;2022-09-09T02:28:25;100571.91;;;14.18;100.00
73551;BME280;61816;53.582;10.096;2022-09-09T02:30:53;100568.72;;;14.00;100.00
73551;BME280;61816;53.582;10.096;2022-09-09T02:33:25;100559.53;;;14.01;100.00
73551;BME280;61816;53.582;10.096;2022-09-09T02:35:52;100558.41;;;14.10;100.00
73551;BME280;61816;53.582;10.096;2022-09-09T02:38:21;100564.13;;;14.30;100.00
73551;BME280;61816;53.582;10.096;2022-09-09T02:40:47;100555.59;;;14.18;100.00
73551;BME280;61816;53.582;10.096;2022-09-09T02:43:14;100564.78;;;14.17;100.00
73551;BME280;61816;53.582;10.096;2022-09-09T02:45:51;100569.56;;;14.00;100.00
73551;BME280;61816;53.582;10.096;2022-09-09T02:48:26;100560.47;;;14.08;100.00
73551;BME280;61816;53.582;10.096;2022-09-09T02:51:08;100560.09;;;14.11;100.00
73551;BME280;61816;53.582;10.096;2022-09-09T02:53:59;100563.38;;;14.06;100.00
73551;BME280;61816;53.582;10.096;2022-09-09T02:56:31;100558.31;;;14.18;100.00
73551;BME280;61816;53.582;10.096;2022-09-09T02:58:59;100560.09;;;14.11;100.00
73551;BME280;61816;53.582;10.096;2022-09-09T03:01:24;100562.00;;;13.96;100.00
73551;BME280;61816;53.582;10.096;2022-09-09T03:03:50;100570.81;;;13.98;100.00
73551;BME280;61816;53.582;10.096;2022-09-09T03:06:16;100571.84;;;13.97;100.00
73551;BME280;61816;53.582;10.096;2022-09-09T03:08:41;100566.00;;;14.00;100.00
73551;BME280;61816;53.582;10.096;2022-09-09T03:11:07;100575.31;;;13.91;100.00
73551;BME280;61816;53.582;10.096;2022-09-09T03:13:32;100571.34;;;14.08;100.00
73551;BME280;61816;53.582;10.096;2022-09-09T03:15:59;100578.41;;;14.02;100.00
73551;BME280;61816;53.582;10.096;2022-09-09T03:18:25;100570.22;;;13.88;100.00
73551;BME280;61816;53.582;10.096;2022-09-09T03:20:50;100569.56;;;13.85;100.00
73551;BME280;61816;53.582;10.096;2022-09-09T03:23:16;100569.69;;;13.77;100.00
73551;BME280;61816;53.582;10.096;2022-09-09T03:25:49;100568.94;;;13.98;100.00
73551;BME280;61816;53.582;10.096;2022-09-09T03:28:15;100570.63;;;13.84;100.00
73551;BME280;61816;53.582;10.096;2022-09-09T03:30:40;100570.03;;;13.74;100.00
73551;BME280;61816;53.582;10.096;2022-09-09T03:33:06;100567.03;;;13.69;100.00
73551;BME280;61816;53.582;10.096;2022-09-09T03:35:31;100561.22;;;13.87;100.00
73551;BME280;61816;53.582;10.096;2022-09-09T03:37:56;100568.38;;;14.03;100.00
73551;BME280;61816;53.582;10.096;2022-09-09T03:40:22;100564.13;;;13.85;100.00
73551;BME280;61816;53.582;10.096;2022-09-09T03:42:47;100563.78;;;14.03;100.00
73551;BME280;61816;53.582;10.096;2022-09-09T03:45:14;100555.00;;;14.08;100.00
73551;BME280;61816;53.582;10.096;2022-09-09T03:47:39;100562.72;;;14.19;100.00
73551;BME280;61816;53.582;10.096;2022-09-09T03:50:06;100576.41;;;13.81;100.00
73551;BME280;61816;53.582;10.096;2022-09-09T03:52:38;100575.22;;;13.84;100.00
73551;BME280;61816;53.582;10.096;2022-09-09T03:55:04;100579.13;;;13.81;100.00
73551;BME280;61816;53.582;10.096;2022-09-09T03:57:30;100573.72;;;13.96;100.00
73551;BME280;61816;53.582;10.096;2022-09-09T03:59:57;100577.84;;;13.92;100.00
73551;BME280;61816;53.582;10.096;2022-09-09T04:02:23;100571.91;;;13.74;100.00
73551;BME280;61816;53.582;10.096;2022-09-09T04:04:48;100577.75;;;13.85;100.00
73551;BME280;61816;53.582;10.096;2022-09-09T04:07:14;100575.84;;;13.71;100.00
73551;BME280;61816;53.582;10.096;2022-09-09T04:09:39;100580.91;;;13.74;100.00
73551;BME280;61816;53.582;10.096;2022-09-09T04:12:04;100586.00;;;13.77;100.00
73551;BME280;61816;53.582;10.096;2022-09-09T04:14:31;100589.34;;;13.50;100.00
73551;BME280;61816;53.582;10.096;2022-09-09T04:16:57;100591.28;;;13.56;100.00
73551;BME280;61816;53.582;10.096;2022-09-09T04:19:23;100576.59;;;13.65;100.00
73551;BME280;61816;53.582;10.096;2022-09-09T04:21:48;100585.28;;;13.46;100.00
73551;BME280;61816;53.582;10.096;2022-09-09T04:24:16;100583.50;;;13.53;100.00
73551;BME280;61816;53.582;10.096;2022-09-09T04:26:42;100596.34;;;13.44;100.00
73551;BME280;61816;53.582;10.096;2022-09-09T04:29:08;100594.78;;;13.50;100.00
73551;BME280;61816;53.582;10.096;2022-09-09T04:31:33;100594.00;;;13.56;100.00
73551;BME280;61816;53.582;10.096;2022-09-09T04:33:59;100593.66;;;13.59;100.00
73551;BME280;61816;53.582;10.096;2022-09-09T04:36:30;100597.97;;;13.68;100.00
73551;BME280;61816;53.582;10.096;2022-09-09T04:38:56;100603.88;;;13.57;100.00
73551;BME280;61816;53.582;10.096;2022-09-09T04:41:22;100607.34;;;13.51;100.00
73551;BME280;61816;53.582;10.096;2022-09-09T04:43:48;100601.22;;;13.49;100.00
73551;BME280;61816;53.582;10.096;2022-09-09T04:46:13;100598.38;;;13.65;100.00
73551;BME280;61816;53.582;10.096;2022-09-09T04:48:38;100599.22;;;13.66;100.00
73551;BME280;61816;53.582;10.096;2022-09-09T04:51:06;100604.47;;;13.67;100.00
73551;BME280;61816;53.582;10.096;2022-09-09T04:53:33;100610.28;;;13.64;100.00
73551;BME280;61816;53.582;10.096;2022-09-09T04:58:31;100616.03;;;13.69;100.00
73551;BME280;61816;53.582;10.096;2022-09-09T05:01:22;100615.63;;;13.72;100.00
73551;BME280;61816;53.582;10.096;2022-09-09T05:03:49;100605.34;;;13.82;100.00
73551;BME280;61816;53.582;10.096;2022-09-09T05:06:17;100604.75;;;13.72;100.00
73551;BME280;61816;53.582;10.096;2022-09-09T05:08:44;100613.94;;;13.71;100.00
73551;BME280;61816;53.582;10.096;2022-09-09T05:11:17;100604.38;;;13.75;100.00
73551;BME280;61816;53.582;10.096;2022-09-09T05:13:44;100609.56;;;13.85;100.00
73551;BME280;61816;53.582;10.096;2022-09-09T05:16:09;100614.91;;;13.78;100.00
73551;BME280;61816;53.582;10.096;2022-09-09T05:18:40;100612.47;;;13.83;100.00
73551;BME280;61816;53.582;10.096;2022-09-09T05:21:06;100610.41;;;13.85;100.00
73551;BME280;61816;53.582;10.096;2022-09-09T05:23:33;100618.13;;;13.97;100.00
73551;BME280;61816;53.582;10.096;2022-09-09T05:25:59;100615.69;;;14.02;100.00
73551;BME280;61816;53.582;10.096;2022-09-09T05:28:26;100608.63;;;14.07;100.00
73551;BME280;61816;53.582;10.096;2022-09-09T05:31:00;100615.78;;;14.08;100.00
73551;BME280;61816;53.582;10.096;2022-09-09T05:33:26;100610.59;;;13.99;100.00
73551;BME280;61816;53.582;10.096;2022-09-09T05:35:59;100611.00;;;13.96;100.00
73551;BME280;61816;53.582;10.096;2022-09-09T05:38:25;100620.75;;;14.05;100.00
73551;BME280;61816;53.582;10.096;2022-09-09T05:40:52;100609.28;;;13.95;100.00
73551;BME280;61816;53.582;10.096;2022-09-09T05:43:19;100624.31;;;13.91;100.00
73551;BME280;61816;53.582;10.096;2022-09-09T05:45:46;100623.91;;;13.94;100.00
73551;BME280;61816;53.582;10.096;2022-09-09T05:48:14;100626.19;;;14.05;100.00
73551;BME280;61816;53.582;10.096;2022-09-09T05:50:42;100633.31;;;14.06;100.00
73551;BME280;61816;53.582;10.096;2022-09-09T05:53:08;100638.09;;;14.04;100.00
73551;BME280;61816;53.582;10.096;2022-09-09T05:55:35;100638.59;;;14.22;100.00
73551;BME280;61816;53.582;10.096;2022-09-09T05:58:00;100645.16;;;14.43;100.00
73551;BME280;61816;53.582;10.096;2022-09-09T06:00:26;100638.59;;;14.52;100.00
73551;BME280;61816;53.582;10.096;2022-09-09T06:02:52;100639.16;;;14.62;100.00
73551;BME280;61816;53.582;10.096;2022-09-09T06:05:18;100642.63;;;14.56;100.00
73551;BME280;61816;53.582;10.096;2022-09-09T06:07:44;100648.34;;;14.31;100.00
73551;BME280;61816;53.582;10.096;2022-09-09T06:10:10;100648.75;;;14.28;100.00
73551;BME280;61816;53.582;10.096;2022-09-09T06:12:38;100653.78;;;14.31;100.00
73551;BME280;61816;53.582;10.096;2022-09-09T06:15:04;100659.94;;;14.48;100.00
73551;BME280;61816;53.582;10.096;2022-09-09T06:17:30;100649.75;;;14.42;100.00
73551;BME280;61816;53.582;10.096;2022-09-09T06:19:55;100663.56;;;14.70;100.00
73551;BME280;61816;53.582;10.096;2022-09-09T06:22:21;100668.75;;;14.65;100.00
73551;BME280;61816;53.582;10.096;2022-09-09T06:24:46;100668.25;;;14.76;100.00
73551;BME280;61816;53.582;10.096;2022-09-09T06:27:12;100662.81;;;14.76;100.00
73551;BME280;61816;53.582;10.096;2022-09-09T06:29:38;100663.34;;;14.86;100.00
73551;BME280;61816;53.582;10.096;2022-09-09T06:32:04;100667.69;;;14.66;100.00
73551;BME280;61816;53.582;10.096;2022-09-09T06:34:29;100662.41;;;14.79;100.00
73551;BME280;61816;53.582;10.096;2022-09-09T06:36:55;100662.41;;;14.79;100.00
73551;BME280;61816;53.582;10.096;2022-09-09T06:39:23;100666.00;;;14.65;100.00
73551;BME280;61816;53.582;10.096;2022-09-09T06:41:48;100663.34;;;14.86;100.00
73551;BME280;61816;53.582;10.096;2022-09-09T06:44:15;100665.41;;;14.84;100.00
73551;BME280;61816;53.582;10.096;2022-09-09T06:46:41;100660.53;;;14.80;100.00
73551;BME280;61816;53.582;10.096;2022-09-09T06:49:07;100665.81;;;14.81;100.00
73551;BME280;61816;53.582;10.096;2022-09-09T06:51:35;100667.66;;;14.96;100.00
73551;BME280;61816;53.582;10.096;2022-09-09T06:54:01;100661.44;;;15.02;100.00
73551;BME280;61816;53.582;10.096;2022-09-09T06:56:38;100664.31;;;15.15;100.00
73551;BME280;61816;53.582;10.096;2022-09-09T06:59:07;100663.81;;;14.90;100.00
73551;BME280;61816;53.582;10.096;2022-09-09T07:01:37;100664.81;;;15.04;100.00
73551;BME280;61816;53.582;10.096;2022-09-09T07:04:05;100664.03;;;15.10;100.00
73551;BME280;61816;53.582;10.096;2022-09-09T07:06:36;100667.41;;;15.12;100.00
73551;BME280;61816;53.582;10.096;2022-09-09T07:09:10;100656.50;;;15.12;100.00
73551;BME280;61816;53.582;10.096;2022-09-09T07:11:44;100659.00;;;15.28;100.00
73551;BME280;61816;53.582;10.096;2022-09-09T07:14:10;100664.44;;;15.28;100.00
73551;BME280;61816;53.582;10.096;2022-09-09T07:16:42;100661.72;;;15.28;100.00
73551;BME280;61816;53.582;10.096;2022-09-09T07:19:07;100666.34;;;15.28;100.00
73551;BME280;61816;53.582;10.096;2022-09-09T07:21:33;100667.03;;;15.36;100.00
73551;BME280;61816;53.582;10.096;2022-09-09T07:23:59;100673.41;;;15.43;100.00
73551;BME280;61816;53.582;10.096;2022-09-09T07:26:26;100677.38;;;15.41;100.00
73551;BME280;61816;53.582;10.096;2022-09-09T07:28:52;100681.22;;;15.46;100.00
73551;BME280;61816;53.582;10.096;2022-09-09T07:31:24;100675.75;;;15.46;100.00
73551;BME280;61816;53.582;10.096;2022-09-09T07:33:50;100674.31;;;15.29;100.00
73551;BME280;61816;53.582;10.096;2022-09-09T07:36:21;100672.78;;;15.05;100.00
73551;BME280;61816;53.582;10.096;2022-09-09T07:38:53;100673.94;;;15.32;100.00
73551;BME280;61816;53.582;10.096;2022-09-09T07:41:27;100674.97;;;15.53;100.00
73551;BME280;61816;53.582;10.096;2022-09-09T07:43:53;100675.63;;;15.76;100.00
73551;BME280;61816;53.582;10.096;2022-09-09T07:46:20;100679.03;;;15.78;100.00
73551;BME280;61816;53.582;10.096;2022-09-09T07:48:48;100684.38;;;15.65;99.27
73551;BME280;61816;53.582;10.096;2022-09-09T07:51:18;100688.06;;;15.79;97.76
73551;BME280;61816;53.582;10.096;2022-09-09T07:53:50;100700.75;;;16.21;98.47
73551;BME280;61816;53.582;10.096;2022-09-09T07:56:18;100693.63;;;16.20;97.77
73551;BME280;61816;53.582;10.096;2022-09-09T07:58:48;100690.72;;;16.28;95.48
73551;BME280;61816;53.582;10.096;2022-09-09T08:01:17;100701.22;;;16.24;96.00
73551;BME280;61816;53.582;10.096;2022-09-09T08:03:44;100692.03;;;16.32;96.55
73551;BME280;61816;53.582;10.096;2022-09-09T08:06:10;100700.22;;;16.67;96.39
73551;BME280;61816;53.582;10.096;2022-09-09T08:08:38;100698.09;;;16.69;97.46
73551;BME280;61816;53.582;10.096;2022-09-09T08:11:23;100700.56;;;16.50;96.29
73551;BME280;61816;53.582;10.096;2022-09-09T08:13:50;100700.22;;;16.67;96.17
73551;BME280;61816;53.582;10.096;2022-09-09T08:16:37;100709.91;;;16.69;97.32
73551;BME280;61816;53.582;10.096;2022-09-09T08:19:04;100712.50;;;16.77;96.19
73551;BME280;61816;53.582;10.096;2022-09-09T08:21:32;100706.19;;;16.77;96.26
73551;BME280;61816;53.582;10.096;2022-09-09T08:24:00;100715.91;;;16.86;95.80
73551;BME280;61816;53.582;10.096;2022-09-09T08:26:28;100717.47;;;17.02;95.05
73551;BME280;61816;53.582;10.096;2022-09-09T08:28:55;100723.53;;;16.97;95.63
73551;BME280;61816;53.582;10.096;2022-09-09T08:31:27;100717.72;;;17.20;95.70
73551;BME280;61816;53.582;10.096;2022-09-09T08:33:54;100713.69;;;17.09;94.49
73551;BME280;61816;53.582;10.096;2022-09-09T08:36:22;100717.97;;;17.32;91.69
73551;BME280;61816;53.582;10.096;2022-09-09T08:38:51;100718.34;;;17.16;92.12
73551;BME280;61816;53.582;10.096;2022-09-09T08:43:46;100724.75;;;17.49;92.62
73551;BME280;61816;53.582;10.096;2022-09-09T08:46:25;100722.41;;;17.40;91.26
73551;BME280;61816;53.582;10.096;2022-09-09T08:49:18;100716.00;;;17.80;91.12
73551;BME280;61816;53.582;10.096;2022-09-09T08:51:48;100720.00;;;17.91;90.81
73551;BME280;61816;53.582;10.096;2022-09-09T08:54:15;100721.66;;;17.79;88.47
73551;BME280;61816;53.582;10.096;2022-09-09T08:56:40;100714.06;;;17.68;89.64
73551;BME280;61816;53.582;10.096;2022-09-09T08:59:09;100725.38;;;17.51;90.95
73551;BME280;61816;53.582;10.096;2022-09-09T09:04:38;100724.22;;;17.74;89.28
73551;BME280;61816;53.582;10.096;2022-09-09T09:07:21;100724.63;;;18.10;88.81
73551;BME280;61816;53.582;10.096;2022-09-09T09:10:15;100734.34;;;18.20;89.22
73551;BME280;61816;53.582;10.096;2022-09-09T09:12:47;100738.53;;;18.42;88.52
73551;BME280;61816;53.582;10.096;2022-09-09T09:15:26;100728.34;;;18.62;85.13
73551;BME280;61816;53.582;10.096;2022-09-09T09:17:55;100736.81;;;18.54;85.74
73551;BME280;61816;53.582;10.096;2022-09-09T09:20:39;100745.66;;;18.56;84.04
73551;BME280;61816;53.582;10.096;2022-09-09T09:23:12;100733.44;;;18.65;84.36
73551;BME280;61816;53.582;10.096;2022-09-09T09:25:42;100738.00;;;18.98;80.74
73551;BME280;61816;53.582;10.096;2022-09-09T09:28:17;100731.06;;;19.34;81.84
73551;BME280;61816;53.582;10.096;2022-09-09T09:31:04;100734.81;;;19.46;81.75
73551;BME280;61816;53.582;10.096;2022-09-09T09:36:12;100735.19;;;19.63;79.94
73551;BME280;61816;53.582;10.096;2022-09-09T09:38:52;100742.84;;;19.41;79.25
73551;BME280;61816;53.582;10.096;2022-09-09T09:41:49;100738.75;;;19.18;80.94
73551;BME280;61816;53.582;10.096;2022-09-09T09:46:48;100732.88;;;19.08;80.27
73551;BME280;61816;53.582;10.096;2022-09-09T09:49:13;100731.75;;;19.67;77.79
73551;BME280;61816;53.582;10.096;2022-09-09T09:51:39;100734.16;;;19.89;76.18
73551;BME280;61816;53.582;10.096;2022-09-09T09:54:21;100724.25;;;20.06;76.27
73551;BME280;61816;53.582;10.096;2022-09-09T09:56:48;100729.94;;;20.36;74.50
73551;BME280;61816;53.582;10.096;2022-09-09T09:59:22;100731.09;;;20.47;74.54
73551;BME280;61816;53.582;10.096;2022-09-09T10:01:47;100744.47;;;20.18;73.77
73551;BME280;61816;53.582;10.096;2022-09-09T10:04:23;100739.38;;;20.40;73.18
73551;BME280;61816;53.582;10.096;2022-09-09T10:06:49;100735.81;;;19.90;74.33
73551;BME280;61816;53.582;10.096;2022-09-09T10:09:29;100737.06;;;20.19;74.69
73551;BME280;61816;53.582;10.096;2022-09-09T10:13:06;100740.22;;;20.66;73.84
73551;BME280;61816;53.582;10.096;2022-09-09T10:20:56;100740.47;;;20.39;74.49
73551;BME280;61816;53.582;10.096;2022-09-09T10:24:36;100730.06;;;21.03;71.96
73551;BME280;61816;53.582;10.096;2022-09-09T10:26:40;100728.44;;;20.15;72.85
73551;BME280;61816;53.582;10.096;2022-09-09T10:32:06;100729.28;;;20.59;70.64
73551;BME280;61816;53.582;10.096;2022-09-09T10:40:15;100710.03;;;21.32;69.26
73551;BME280;61816;53.582;10.096;2022-09-09T10:42:45;100714.97;;;21.72;69.96
73551;BME280;61816;53.582;10.096;2022-09-09T10:45:28;100718.41;;;21.37;67.34
73551;BME280;61816;53.582;10.096;2022-09-09T10:51:02;100713.69;;;21.26;68.77
73551;BME280;61816;53.582;10.096;2022-09-09T10:53:36;100723.78;;;21.62;68.07
73551;BME280;61816;53.582;10.096;2022-09-09T10:56:10;100724.16;;;21.66;66.62
73551;BME280;61816;53.582;10.096;2022-09-09T10:59:00;100712.44;;;21.82;65.28
73551;BME280;61816;53.582;10.096;2022-09-09T11:01:43;100714.03;;;20.81;69.37
73551;BME280;61816;53.582;10.096;2022-09-09T11:04:15;100715.72;;;21.01;68.44
73551;BME280;61816;53.582;10.096;2022-09-09T11:06:46;100712.94;;;21.19;68.13
73551;BME280;61816;53.582;10.096;2022-09-09T11:09:22;100714.78;;;20.70;70.25
73551;BME280;61816;53.582;10.096;2022-09-09T11:11:55;100721.66;;;20.98;70.36
73551;BME280;61816;53.582;10.096;2022-09-09T11:14:32;100717.84;;;20.80;70.68
73551;BME280;61816;53.582;10.096;2022-09-09T11:17:02;100707.56;;;21.06;70.58
73551;BME280;61816;53.582;10.096;2022-09-09T11:19:41;100708.88;;;21.93;69.23
73551;BME280;61816;53.582;10.096;2022-09-09T11:22:30;100709.41;;;22.14;67.63
73551;BME280;61816;53.582;10.096;2022-09-09T11:25:21;100708.19;;;22.10;68.05
73551;BME280;61816;53.582;10.096;2022-09-09T11:30:21;100712.31;;;22.19;66.12
73551;BME280;61816;53.582;10.096;2022-09-09T11:38:18;100723.53;;;22.06;67.29
73551;BME280;61816;53.582;10.096;2022-09-09T11:40:44;100720.22;;;21.74;67.61
73551;BME280;61816;53.582;10.096;2022-09-09T11:43:27;100718.03;;;21.64;67.82
73551;BME280;61816;53.582;10.096;2022-09-09T11:45:58;100720.03;;;21.27;68.77
73551;BME280;61816;53.582;10.096;2022-09-09T11:48:32;100720.31;;;21.19;70.07
73551;BME280;61816;53.582;10.096;2022-09-09T11:51:09;100731.31;;;21.07;69.55
73551;BME280;61816;53.582;10.096;2022-09-09T11:54:04;100724.41;;;21.16;70.36
73551;BME280;61816;53.582;10.096;2022-09-09T11:56:48;100729.03;;;21.52;69.90
73551;BME280;61816;53.582;10.096;2022-09-09T11:59:22;100721.47;;;22.01;67.88
73551;BME280;61816;53.582;10.096;2022-09-09T12:01:55;100732.81;;;22.58;66.40
73551;BME280;61816;53.582;10.096;2022-09-09T12:07:00;100731.22;;;22.74;65.01
73551;BME280;61816;53.582;10.096;2022-09-09T12:09:31;100722.69;;;22.75;65.10
73551;BME280;61816;53.582;10.096;2022-09-09T12:17:28;100714.31;;;21.70;68.02
73551;BME280;61816;53.582;10.096;2022-09-09T12:22:44;100725.16;;;21.83;67.97
73551;BME280;61816;53.582;10.096;2022-09-09T12:25:20;100724.84;;;21.91;66.51
73551;BME280;61816;53.582;10.096;2022-09-09T12:33:37;100722.78;;;21.57;67.77
73551;BME280;61816;53.582;10.096;2022-09-09T12:36:05;100722.84;;;21.38;68.70
73551;BME280;61816;53.582;10.096;2022-09-09T12:38:39;100729.78;;;21.59;69.28
73551;BME280;61816;53.582;10.096;2022-09-09T12:41:05;100730.66;;;21.83;67.28
73551;BME280;61816;53.582;10.096;2022-09-09T12:43:31;100723.56;;;22.29;66.99
73551;BME280;61816;53.582;10.096;2022-09-09T12:46:03;100718.75;;;22.36;66.36
73551;BME280;61816;53.582;10.096;2022-09-09T12:50:57;100708.94;;;22.17;67.61
73551;BME280;61816;53.582;10.096;2022-09-09T12:53:27;100713.72;;;22.10;67.41
73551;BME280;61816;53.582;10.096;2022-09-09T12:55:58;100714.53;;;21.99;68.56
73551;BME280;61816;53.582;10.096;2022-09-09T12:58:25;100712.19;;;21.72;69.07
73551;BME280;61816;53.582;10.096;2022-09-09T13:00:52;100708.06;;;20.84;71.82
73551;BME280;61816;53.582;10.096;2022-09-09T13:03:20;100704.78;;;20.94;70.71
73551;BME280;61816;53.582;10.096;2022-09-09T13:05:49;100713.41;;;20.79;72.05
73551;BME280;61816;53.582;10.096;2022-09-09T13:08:16;100721.28;;;20.57;72.59
73551;BME280;61816;53.582;10.096;2022-09-09T13:10:51;100719.31;;;20.40;73.38
73551;BME280;61816;53.582;10.096;2022-09-09T13:13:31;100722.03;;;20.21;73.92
73551;BME280;61816;53.582;10.096;2022-09-09T13:16:01;100717.97;;;19.99;75.61
73551;BME280;61816;53.582;10.096;2022-09-09T13:18:36;100716.00;;;20.06;75.79
73551;BME280;61816;53.582;10.096;2022-09-09T13:21:04;100722.22;;;19.95;76.74
73551;BME280;61816;53.582;10.096;2022-09-09T13:23:32;100724.97;;;19.95;77.63
73551;BME280;61816;53.582;10.096;2022-09-09T13:26:00;100726.94;;;19.88;76.63
73551;BME280;61816;53.582;10.096;2022-09-09T13:28:28;100716.19;;;19.48;78.54
73551;BME280;61816;53.582;10.096;2022-09-09T13:31:22;100720.63;;;19.49;77.63
73551;BME280;61816;53.582;10.096;2022-09-09T13:33:47;100729.31;;;19.46;79.43
73551;BME280;61816;53.582;10.096;2022-09-09T13:36:13;100732.25;;;19.51;79.45
73551;BME280;61816;53.582;10.096;2022-09-09T13:41:35;100763.47;;;19.18;83.89
73551;BME280;61816;53.582;10.096;2022-09-09T13:44:02;100770.97;;;18.85;86.88
73551;BME280;61816;53.582;10.096;2022-09-09T13:46:38;100774.34;;;18.60;88.11
73551;BME280;61816;53.582;10.096;2022-09-09T13:51:34;100786.81;;;18.30;92.20
73551;BME280;61816;53.582;10.096;2022-09-09T13:54:05;100788.31;;;18.32;93.33
73551;BME280;61816;53.582;10.096;2022-09-09T13:56:36;100788.47;;;17.91;96.34
73551;BME280;61816;53.582;10.096;2022-09-09T13:59:04;100776.28;;;17.94;95.42
73551;BME280;61816;53.582;10.096;2022-09-09T14:01:29;100774.69;;;17.58;98.54
73551;BME280;61816;53.582;10.096;2022-09-09T14:03:55;100766.22;;;17.46;97.46
73551;BME280;61816;53.582;10.096;2022-09-09T14:06:21;100756.09;;;17.40;99.75
73551;BME280;61816;53.582;10.096;2022-09-09T14:08:48;100759.44;;;17.29;100.00
73551;BME280;61816;53.582;10.096;2022-09-09T14:11:15;100753.50;;;17.19;100.00
73551;BME280;61816;53.582;10.096;2022-09-09T14:13:40;100754.34;;;17.26;100.00
73551;BME280;61816;53.582;10.096;2022-09-09T14:16:06;100745.16;;;17.47;100.00
73551;BME280;61816;53.582;10.096;2022-09-09T14:18:31;100736.31;;;17.45;100.00
73551;BME280;61816;53.582;10.096;2022-09-09T14:20:57;100738.44;;;17.49;100.00